sensor_id;sensor_type;location;lat;lon;timestamp;P1;durP1;ratioP1;P2;durP2;ratioP2
669;SDS011;317;48.758;9.302;2022-11-11T00:00:57;25.97;;;23.40;;
669;SDS011;317;48.758;9.302;2022-11-11T00:03:25;23.87;;;21.67;;
669;SDS011;317;48.758;9.302;2022-11-11T00:05:51;23.50;;;21.40;;
669;SDS011;317;48.758;9.302;2022-11-11T00:08:18;22.17;;;20.17;;
669;SDS011;317;48.758;9.302;2022-11-11T00:10:47;22.03;;;20.23;;
669;SDS011;317;48.758;9.302;2022-11-11T00:13:14;22.13;;;20.03;;
669;SDS011;317;48.758;9.302;2022-11-11T00:15:40;22.77;;;20.77;;
669;SDS011;317;48.758;9.302;2022-11-11T00:18:08;23.40;;;21.07;;
669;SDS011;317;48.758;9.302;2022-11-11T00:20:54;23.00;;;20.50;;
669;SDS011;317;48.758;9.302;2022-11-11T00:23:40;24.23;;;21.93;;
669;SDS011;317;48.758;9.302;2022-11-11T00:26:26;22.77;;;20.17;;
669;SDS011;317;48.758;9.302;2022-11-11T00:28:53;22.00;;;20.00;;
669;SDS011;317;48.758;9.302;2022-11-11T00:31:20;21.20;;;19.30;;
669;SDS011;317;48.758;9.302;2022-11-11T00:33:47;22.20;;;20.10;;
669;SDS011;317;48.758;9.302;2022-11-11T00:36:14;21.43;;;19.50;;
669;SDS011;317;48.758;9.302;2022-11-11T00:38:40;22.90;;;20.80;;
669;SDS011;317;48.758;9.302;2022-11-11T00:41:14;18.10;;;15.90;;
669;SDS011;317;48.758;9.302;2022-11-11T00:43:44;17.93;;;16.13;;
669;SDS011;317;48.758;9.302;2022-11-11T00:46:12;17.80;;;15.97;;
669;SDS011;317;48.758;9.302;2022-11-11T00:48:57;17.10;;;15.60;;
669;SDS011;317;48.758;9.302;2022-11-11T00:51:42;17.80;;;16.13;;
669;SDS011;317;48.758;9.302;2022-11-11T00:54:09;18.83;;;17.23;;
669;SDS011;317;48.758;9.302;2022-11-11T00:56:36;18.33;;;16.30;;
669;SDS011;317;48.758;9.302;2022-11-11T00:59:04;17.73;;;16.00;;
669;SDS011;317;48.758;9.302;2022-11-11T01:01:32;18.50;;;17.07;;
669;SDS011;317;48.758;9.302;2022-11-11T01:04:00;17.83;;;16.23;;
669;SDS011;317;48.758;9.302;2022-11-11T01:06:27;18.80;;;16.90;;
669;SDS011;317;48.758;9.302;2022-11-11T01:08:54;18.00;;;16.57;;
669;SDS011;317;48.758;9.302;2022-11-11T01:11:22;19.40;;;17.50;;
669;SDS011;317;48.758;9.302;2022-11-11T01:13:49;17.43;;;15.73;;
669;SDS011;317;48.758;9.302;2022-11-11T01:16:18;17.63;;;15.93;;
669;SDS011;317;48.758;9.302;2022-11-11T01:18:46;16.20;;;14.77;;
669;SDS011;317;48.758;9.302;2022-11-11T01:21:14;17.13;;;15.30;;
669;SDS011;317;48.758;9.302;2022-11-11T01:23:42;15.57;;;14.17;;
669;SDS011;317;48.758;9.302;2022-11-11T01:26:12;15.40;;;14.20;;
669;SDS011;317;48.758;9.302;2022-11-11T01:28:39;14.97;;;13.70;;
669;SDS011;317;48.758;9.302;2022-11-11T01:31:08;16.80;;;15.20;;
669;SDS011;317;48.758;9.302;2022-11-11T01:33:37;18.20;;;14.83;;
669;SDS011;317;48.758;9.302;2022-11-11T01:36:06;17.40;;;15.80;;
669;SDS011;317;48.758;9.302;2022-11-11T01:38:34;17.73;;;15.97;;
669;SDS011;317;48.758;9.302;2022-11-11T01:41:02;18.27;;;16.43;;
669;SDS011;317;48.758;9.302;2022-11-11T01:43:51;18.40;;;16.60;;
669;SDS011;317;48.758;9.302;2022-11-11T01:46:20;19.60;;;17.17;;
669;SDS011;317;48.758;9.302;2022-11-11T01:48:54;21.50;;;18.93;;
669;SDS011;317;48.758;9.302;2022-11-11T01:51:41;19.30;;;17.60;;
669;SDS011;317;48.758;9.302;2022-11-11T01:54:13;20.50;;;18.40;;
669;SDS011;317;48.758;9.302;2022-11-11T01:56:44;22.53;;;19.17;;
669;SDS011;317;48.758;9.302;2022-11-11T01:59:14;20.83;;;18.97;;
669;SDS011;317;48.758;9.302;2022-11-11T02:01:42;23.73;;;21.23;;
669;SDS011;317;48.758;9.302;2022-11-11T02:04:11;24.13;;;20.00;;
669;SDS011;317;48.758;9.302;2022-11-11T02:06:57;22.13;;;18.93;;
669;SDS011;317;48.758;9.302;2022-11-11T02:09:27;23.13;;;20.70;;
669;SDS011;317;48.758;9.302;2022-11-11T02:11:55;26.07;;;19.93;;
669;SDS011;317;48.758;9.302;2022-11-11T02:14:44;23.50;;;20.87;;
669;SDS011;317;48.758;9.302;2022-11-11T02:17:14;22.90;;;20.80;;
669;SDS011;317;48.758;9.302;2022-11-11T02:19:45;19.40;;;17.47;;
669;SDS011;317;48.758;9.302;2022-11-11T02:22:16;20.83;;;18.73;;
669;SDS011;317;48.758;9.302;2022-11-11T02:24:49;17.97;;;16.23;;
669;SDS011;317;48.758;9.302;2022-11-11T02:27:18;17.13;;;15.63;;
669;SDS011;317;48.758;9.302;2022-11-11T02:29:48;18.03;;;15.93;;
669;SDS011;317;48.758;9.302;2022-11-11T02:32:17;17.30;;;15.80;;
669;SDS011;317;48.758;9.302;2022-11-11T02:34:46;18.37;;;16.67;;
669;SDS011;317;48.758;9.302;2022-11-11T02:37:13;17.03;;;15.33;;
669;SDS011;317;48.758;9.302;2022-11-11T02:39:44;17.97;;;16.30;;
669;SDS011;317;48.758;9.302;2022-11-11T02:42:14;17.50;;;16.10;;
669;SDS011;317;48.758;9.302;2022-11-11T02:44:43;17.63;;;16.13;;
669;SDS011;317;48.758;9.302;2022-11-11T02:47:11;19.70;;;17.90;;
669;SDS011;317;48.758;9.302;2022-11-11T02:49:38;22.23;;;20.13;;
669;SDS011;317;48.758;9.302;2022-11-11T02:52:04;21.33;;;19.23;;
669;SDS011;317;48.758;9.302;2022-11-11T02:54:31;20.90;;;18.80;;
669;SDS011;317;48.758;9.302;2022-11-11T02:56:58;22.07;;;20.10;;
669;SDS011;317;48.758;9.302;2022-11-11T02:59:35;20.30;;;18.60;;
669;SDS011;317;48.758;9.302;2022-11-11T03:02:04;21.93;;;19.73;;
669;SDS011;317;48.758;9.302;2022-11-11T03:04:31;16.93;;;15.63;;
669;SDS011;317;48.758;9.302;2022-11-11T03:06:58;17.60;;;16.10;;
669;SDS011;317;48.758;9.302;2022-11-11T03:09:25;18.70;;;16.80;;
669;SDS011;317;48.758;9.302;2022-11-11T03:11:52;19.27;;;17.40;;
669;SDS011;317;48.758;9.302;2022-11-11T03:14:19;19.37;;;17.47;;
669;SDS011;317;48.758;9.302;2022-11-11T03:16:47;35.03;;;22.67;;
669;SDS011;317;48.758;9.302;2022-11-11T03:19:40;57.47;;;22.63;;
669;SDS011;317;48.758;9.302;2022-11-11T03:22:07;151.50;;;34.53;;
669;SDS011;317;48.758;9.302;2022-11-11T03:24:33;74.03;;;27.10;;
669;SDS011;317;48.758;9.302;2022-11-11T03:27:17;175.13;;;38.60;;
669;SDS011;317;48.758;9.302;2022-11-11T03:29:44;160.50;;;32.90;;
669;SDS011;317;48.758;9.302;2022-11-11T03:32:12;224.27;;;36.47;;
669;SDS011;317;48.758;9.302;2022-11-11T03:34:39;494.60;;;56.00;;
669;SDS011;317;48.758;9.302;2022-11-11T03:37:06;204.40;;;29.47;;
669;SDS011;317;48.758;9.302;2022-11-11T03:39:51;334.67;;;42.90;;
669;SDS011;317;48.758;9.302;2022-11-11T03:42:18;322.33;;;42.47;;
669;SDS011;317;48.758;9.302;2022-11-11T03:44:45;448.97;;;53.50;;
669;SDS011;317;48.758;9.302;2022-11-11T03:47:13;345.93;;;44.20;;
669;SDS011;317;48.758;9.302;2022-11-11T03:49:40;159.20;;;30.77;;
669;SDS011;317;48.758;9.302;2022-11-11T03:52:09;152.00;;;40.30;;
669;SDS011;317;48.758;9.302;2022-11-11T03:54:36;311.27;;;37.93;;
669;SDS011;317;48.758;9.302;2022-11-11T03:57:03;297.93;;;40.27;;
669;SDS011;317;48.758;9.302;2022-11-11T03:59:47;310.33;;;41.80;;
669;SDS011;317;48.758;9.302;2022-11-11T04:02:15;430.53;;;57.70;;
669;SDS011;317;48.758;9.302;2022-11-11T04:05:00;287.43;;;40.33;;
669;SDS011;317;48.758;9.302;2022-11-11T04:07:44;157.37;;;29.67;;
669;SDS011;317;48.758;9.302;2022-11-11T04:10:28;172.97;;;39.37;;
669;SDS011;317;48.758;9.302;2022-11-11T04:12:56;176.40;;;38.00;;
669;SDS011;317;48.758;9.302;2022-11-11T04:15:41;205.90;;;37.33;;
669;SDS011;317;48.758;9.302;2022-11-11T04:18:27;219.97;;;40.27;;
669;SDS011;317;48.758;9.302;2022-11-11T04:21:12;197.47;;;37.27;;
669;SDS011;317;48.758;9.302;2022-11-11T04:23:57;182.10;;;35.70;;
669;SDS011;317;48.758;9.302;2022-11-11T04:26:24;253.53;;;43.07;;
669;SDS011;317;48.758;9.302;2022-11-11T04:28:49;137.77;;;27.97;;
669;SDS011;317;48.758;9.302;2022-11-11T04:31:33;133.67;;;29.00;;
669;SDS011;317;48.758;9.302;2022-11-11T04:34:01;181.67;;;33.20;;
669;SDS011;317;48.758;9.302;2022-11-11T04:36:27;172.33;;;33.47;;
669;SDS011;317;48.758;9.302;2022-11-11T04:38:54;91.90;;;25.60;;
669;SDS011;317;48.758;9.302;2022-11-11T04:41:38;141.30;;;29.07;;
669;SDS011;317;48.758;9.302;2022-11-11T04:44:05;215.60;;;32.87;;
669;SDS011;317;48.758;9.302;2022-11-11T04:46:49;282.57;;;36.90;;
669;SDS011;317;48.758;9.302;2022-11-11T04:49:17;279.03;;;36.47;;
669;SDS011;317;48.758;9.302;2022-11-11T04:51:44;285.37;;;40.80;;
669;SDS011;317;48.758;9.302;2022-11-11T04:54:28;459.03;;;47.93;;
669;SDS011;317;48.758;9.302;2022-11-11T04:57:15;301.33;;;37.50;;
669;SDS011;317;48.758;9.302;2022-11-11T04:59:40;325.03;;;40.33;;
669;SDS011;317;48.758;9.302;2022-11-11T05:02:07;333.23;;;44.40;;
669;SDS011;317;48.758;9.302;2022-11-11T05:04:52;224.60;;;26.00;;
669;SDS011;317;48.758;9.302;2022-11-11T05:07:19;118.90;;;19.63;;
669;SDS011;317;48.758;9.302;2022-11-11T05:10:03;149.17;;;22.97;;
669;SDS011;317;48.758;9.302;2022-11-11T05:12:31;94.80;;;22.00;;
669;SDS011;317;48.758;9.302;2022-11-11T05:14:57;91.63;;;27.73;;
669;SDS011;317;48.758;9.302;2022-11-11T05:17:42;34.73;;;17.30;;
669;SDS011;317;48.758;9.302;2022-11-11T05:20:30;52.93;;;17.90;;
669;SDS011;317;48.758;9.302;2022-11-11T05:23:14;67.87;;;21.70;;
669;SDS011;317;48.758;9.302;2022-11-11T05:25:40;44.37;;;14.90;;
669;SDS011;317;48.758;9.302;2022-11-11T05:28:06;38.30;;;20.87;;
669;SDS011;317;48.758;9.302;2022-11-11T05:30:33;18.73;;;16.47;;
669;SDS011;317;48.758;9.302;2022-11-11T05:33:01;42.87;;;17.70;;
669;SDS011;317;48.758;9.302;2022-11-11T05:35:29;39.53;;;18.47;;
669;SDS011;317;48.758;9.302;2022-11-11T05:38:00;53.03;;;19.70;;
669;SDS011;317;48.758;9.302;2022-11-11T05:40:45;107.40;;;26.17;;
669;SDS011;317;48.758;9.302;2022-11-11T05:43:13;96.87;;;24.33;;
669;SDS011;317;48.758;9.302;2022-11-11T05:45:40;44.73;;;17.60;;
669;SDS011;317;48.758;9.302;2022-11-11T05:48:07;80.87;;;25.37;;
669;SDS011;317;48.758;9.302;2022-11-11T05:50:35;98.47;;;20.93;;
669;SDS011;317;48.758;9.302;2022-11-11T05:53:05;327.93;;;40.90;;
669;SDS011;317;48.758;9.302;2022-11-11T05:55:32;47.67;;;17.27;;
669;SDS011;317;48.758;9.302;2022-11-11T05:57:58;232.73;;;37.50;;
669;SDS011;317;48.758;9.302;2022-11-11T06:00:25;557.60;;;61.27;;
669;SDS011;317;48.758;9.302;2022-11-11T06:02:52;381.07;;;50.40;;
669;SDS011;317;48.758;9.302;2022-11-11T06:05:19;465.57;;;52.83;;
669;SDS011;317;48.758;9.302;2022-11-11T06:07:47;387.40;;;41.60;;
669;SDS011;317;48.758;9.302;2022-11-11T06:10:18;323.63;;;39.70;;
669;SDS011;317;48.758;9.302;2022-11-11T06:12:57;509.83;;;46.60;;
669;SDS011;317;48.758;9.302;2022-11-11T06:15:29;334.23;;;41.03;;
669;SDS011;317;48.758;9.302;2022-11-11T06:17:56;165.90;;;28.83;;
669;SDS011;317;48.758;9.302;2022-11-11T06:20:23;132.10;;;26.27;;
669;SDS011;317;48.758;9.302;2022-11-11T06:22:51;39.93;;;14.97;;
669;SDS011;317;48.758;9.302;2022-11-11T06:25:27;94.20;;;21.53;;
669;SDS011;317;48.758;9.302;2022-11-11T06:28:12;168.97;;;26.93;;
669;SDS011;317;48.758;9.302;2022-11-11T06:30:41;92.03;;;23.73;;
669;SDS011;317;48.758;9.302;2022-11-11T06:33:08;287.30;;;43.77;;
669;SDS011;317;48.758;9.302;2022-11-11T06:35:35;76.93;;;16.60;;
669;SDS011;317;48.758;9.302;2022-11-11T06:38:05;103.53;;;22.37;;
669;SDS011;317;48.758;9.302;2022-11-11T06:40:32;67.50;;;18.03;;
669;SDS011;317;48.758;9.302;2022-11-11T06:42:59;95.37;;;20.37;;
669;SDS011;317;48.758;9.302;2022-11-11T06:45:26;92.57;;;19.40;;
669;SDS011;317;48.758;9.302;2022-11-11T06:47:54;46.67;;;18.37;;
669;SDS011;317;48.758;9.302;2022-11-11T06:50:21;83.23;;;18.97;;
669;SDS011;317;48.758;9.302;2022-11-11T06:52:48;136.53;;;23.57;;
669;SDS011;317;48.758;9.302;2022-11-11T06:55:16;188.57;;;28.70;;
669;SDS011;317;48.758;9.302;2022-11-11T06:57:43;247.83;;;42.77;;
669;SDS011;317;48.758;9.302;2022-11-11T07:00:10;235.30;;;35.57;;
669;SDS011;317;48.758;9.302;2022-11-11T07:02:37;147.53;;;26.43;;
669;SDS011;317;48.758;9.302;2022-11-11T07:05:05;209.10;;;24.53;;
669;SDS011;317;48.758;9.302;2022-11-11T07:07:32;298.00;;;37.30;;
669;SDS011;317;48.758;9.302;2022-11-11T07:09:59;203.23;;;29.93;;
669;SDS011;317;48.758;9.302;2022-11-11T07:12:27;238.20;;;32.50;;
669;SDS011;317;48.758;9.302;2022-11-11T07:14:54;72.37;;;19.33;;
669;SDS011;317;48.758;9.302;2022-11-11T07:17:21;61.63;;;16.57;;
669;SDS011;317;48.758;9.302;2022-11-11T07:19:47;101.17;;;17.77;;
669;SDS011;317;48.758;9.302;2022-11-11T07:22:16;83.27;;;20.83;;
669;SDS011;317;48.758;9.302;2022-11-11T07:24:42;82.03;;;21.17;;
669;SDS011;317;48.758;9.302;2022-11-11T07:27:10;41.63;;;14.30;;
669;SDS011;317;48.758;9.302;2022-11-11T07:29:38;35.47;;;13.37;;
669;SDS011;317;48.758;9.302;2022-11-11T07:32:04;50.43;;;14.40;;
669;SDS011;317;48.758;9.302;2022-11-11T07:34:31;98.73;;;22.20;;
669;SDS011;317;48.758;9.302;2022-11-11T07:36:58;98.13;;;20.33;;
669;SDS011;317;48.758;9.302;2022-11-11T07:39:25;116.20;;;19.00;;
669;SDS011;317;48.758;9.302;2022-11-11T07:41:52;24.37;;;14.43;;
669;SDS011;317;48.758;9.302;2022-11-11T07:44:18;36.63;;;12.90;;
669;SDS011;317;48.758;9.302;2022-11-11T07:46:47;16.77;;;14.97;;
669;SDS011;317;48.758;9.302;2022-11-11T07:49:13;15.13;;;12.37;;
669;SDS011;317;48.758;9.302;2022-11-11T07:51:40;16.63;;;12.93;;
669;SDS011;317;48.758;9.302;2022-11-11T07:54:07;16.00;;;14.30;;
669;SDS011;317;48.758;9.302;2022-11-11T07:56:34;15.50;;;14.00;;
669;SDS011;317;48.758;9.302;2022-11-11T07:59:01;50.17;;;19.13;;
669;SDS011;317;48.758;9.302;2022-11-11T08:01:28;25.00;;;13.50;;
669;SDS011;317;48.758;9.302;2022-11-11T08:03:56;35.80;;;14.40;;
669;SDS011;317;48.758;9.302;2022-11-11T08:06:23;11.37;;;10.27;;
669;SDS011;317;48.758;9.302;2022-11-11T08:08:50;15.27;;;11.43;;
669;SDS011;317;48.758;9.302;2022-11-11T08:11:17;10.90;;;9.80;;
669;SDS011;317;48.758;9.302;2022-11-11T08:14:04;11.23;;;10.20;;
669;SDS011;317;48.758;9.302;2022-11-11T08:16:30;11.03;;;10.03;;
669;SDS011;317;48.758;9.302;2022-11-11T08:18:58;15.93;;;10.30;;
669;SDS011;317;48.758;9.302;2022-11-11T08:21:26;11.80;;;10.30;;
669;SDS011;317;48.758;9.302;2022-11-11T08:23:53;10.63;;;9.73;;
669;SDS011;317;48.758;9.302;2022-11-11T08:26:20;9.37;;;8.67;;
669;SDS011;317;48.758;9.302;2022-11-11T08:28:48;11.33;;;9.60;;
669;SDS011;317;48.758;9.302;2022-11-11T08:31:17;10.20;;;9.20;;
669;SDS011;317;48.758;9.302;2022-11-11T08:33:44;9.07;;;8.17;;
669;SDS011;317;48.758;9.302;2022-11-11T08:36:12;9.60;;;8.60;;
669;SDS011;317;48.758;9.302;2022-11-11T08:38:39;9.70;;;8.70;;
669;SDS011;317;48.758;9.302;2022-11-11T08:41:06;7.20;;;6.50;;
669;SDS011;317;48.758;9.302;2022-11-11T08:43:33;9.47;;;8.57;;
669;SDS011;317;48.758;9.302;2022-11-11T08:46:00;9.73;;;7.10;;
669;SDS011;317;48.758;9.302;2022-11-11T08:48:28;8.30;;;7.60;;
669;SDS011;317;48.758;9.302;2022-11-11T08:50:55;8.13;;;7.43;;
669;SDS011;317;48.758;9.302;2022-11-11T08:53:24;9.67;;;7.87;;
669;SDS011;317;48.758;9.302;2022-11-11T08:55:51;10.97;;;8.60;;
669;SDS011;317;48.758;9.302;2022-11-11T08:58:18;8.50;;;7.70;;
669;SDS011;317;48.758;9.302;2022-11-11T09:00:45;11.60;;;8.90;;
669;SDS011;317;48.758;9.302;2022-11-11T09:03:12;18.77;;;16.70;;
669;SDS011;317;48.758;9.302;2022-11-11T09:05:39;14.63;;;13.20;;
669;SDS011;317;48.758;9.302;2022-11-11T09:08:07;10.13;;;8.00;;
669;SDS011;317;48.758;9.302;2022-11-11T09:10:37;84.40;;;63.97;;
669;SDS011;317;48.758;9.302;2022-11-11T09:13:04;10.77;;;9.70;;
669;SDS011;317;48.758;9.302;2022-11-11T09:15:31;7.57;;;6.70;;
669;SDS011;317;48.758;9.302;2022-11-11T09:17:58;6.93;;;6.33;;
669;SDS011;317;48.758;9.302;2022-11-11T09:20:26;7.77;;;6.53;;
669;SDS011;317;48.758;9.302;2022-11-11T09:22:53;8.87;;;5.90;;
669;SDS011;317;48.758;9.302;2022-11-11T09:25:20;6.40;;;5.80;;
669;SDS011;317;48.758;9.302;2022-11-11T09:27:53;7.90;;;4.90;;
669;SDS011;317;48.758;9.302;2022-11-11T09:30:21;5.77;;;5.37;;
669;SDS011;317;48.758;9.302;2022-11-11T09:32:48;8.07;;;5.30;;
669;SDS011;317;48.758;9.302;2022-11-11T09:35:16;11.00;;;6.30;;
669;SDS011;317;48.758;9.302;2022-11-11T09:37:51;9.23;;;5.37;;
669;SDS011;317;48.758;9.302;2022-11-11T09:40:18;5.93;;;5.23;;
669;SDS011;317;48.758;9.302;2022-11-11T09:42:48;7.20;;;6.47;;
669;SDS011;317;48.758;9.302;2022-11-11T09:45:25;9.53;;;4.77;;
669;SDS011;317;48.758;9.302;2022-11-11T09:48:05;6.17;;;5.10;;
669;SDS011;317;48.758;9.302;2022-11-11T09:50:39;4.73;;;4.43;;
669;SDS011;317;48.758;9.302;2022-11-11T09:53:09;8.10;;;4.73;;
669;SDS011;317;48.758;9.302;2022-11-11T09:55:43;5.17;;;4.70;;
669;SDS011;317;48.758;9.302;2022-11-11T09:58:17;6.57;;;4.80;;
669;SDS011;317;48.758;9.302;2022-11-11T10:00:47;5.17;;;4.77;;
669;SDS011;317;48.758;9.302;2022-11-11T10:03:17;6.50;;;5.90;;
669;SDS011;317;48.758;9.302;2022-11-11T10:05:47;5.60;;;5.10;;
669;SDS011;317;48.758;9.302;2022-11-11T10:08:21;6.70;;;6.00;;
669;SDS011;317;48.758;9.302;2022-11-11T10:10:51;4.33;;;3.90;;
669;SDS011;317;48.758;9.302;2022-11-11T10:13:22;5.17;;;4.53;;
669;SDS011;317;48.758;9.302;2022-11-11T10:15:56;5.63;;;4.40;;
669;SDS011;317;48.758;9.302;2022-11-11T10:18:51;5.33;;;4.83;;
669;SDS011;317;48.758;9.302;2022-11-11T10:21:29;4.80;;;4.30;;
669;SDS011;317;48.758;9.302;2022-11-11T10:24:01;5.80;;;5.10;;
669;SDS011;317;48.758;9.302;2022-11-11T10:26:37;8.60;;;4.90;;
669;SDS011;317;48.758;9.302;2022-11-11T10:29:09;6.27;;;4.43;;
669;SDS011;317;48.758;9.302;2022-11-11T10:31:39;4.90;;;4.00;;
669;SDS011;317;48.758;9.302;2022-11-11T10:34:08;5.37;;;4.50;;
669;SDS011;317;48.758;9.302;2022-11-11T10:36:37;4.90;;;4.43;;
669;SDS011;317;48.758;9.302;2022-11-11T10:39:09;6.03;;;4.00;;
669;SDS011;317;48.758;9.302;2022-11-11T10:41:42;5.70;;;5.20;;
669;SDS011;317;48.758;9.302;2022-11-11T10:44:24;6.13;;;3.90;;
669;SDS011;317;48.758;9.302;2022-11-11T10:46:54;4.77;;;4.37;;
669;SDS011;317;48.758;9.302;2022-11-11T10:49:30;4.50;;;4.03;;
669;SDS011;317;48.758;9.302;2022-11-11T10:51:59;6.43;;;4.47;;
669;SDS011;317;48.758;9.302;2022-11-11T10:54:33;6.33;;;4.30;;
669;SDS011;317;48.758;9.302;2022-11-11T10:57:04;4.83;;;4.10;;
669;SDS011;317;48.758;9.302;2022-11-11T10:59:40;4.17;;;3.67;;
669;SDS011;317;48.758;9.302;2022-11-11T11:02:15;6.60;;;4.80;;
669;SDS011;317;48.758;9.302;2022-11-11T11:04:47;4.43;;;3.87;;
669;SDS011;317;48.758;9.302;2022-11-11T11:07:18;6.77;;;4.17;;
669;SDS011;317;48.758;9.302;2022-11-11T11:09:51;6.30;;;4.10;;
669;SDS011;317;48.758;9.302;2022-11-11T11:12:24;9.23;;;5.13;;
669;SDS011;317;48.758;9.302;2022-11-11T11:14:57;21.93;;;6.40;;
669;SDS011;317;48.758;9.302;2022-11-11T11:17:29;6.67;;;4.97;;
669;SDS011;317;48.758;9.302;2022-11-11T11:20:08;5.83;;;5.20;;
669;SDS011;317;48.758;9.302;2022-11-11T11:22:43;7.90;;;5.10;;
669;SDS011;317;48.758;9.302;2022-11-11T11:25:15;7.87;;;5.37;;
669;SDS011;317;48.758;9.302;2022-11-11T11:27:44;6.53;;;5.33;;
669;SDS011;317;48.758;9.302;2022-11-11T11:30:13;7.23;;;5.10;;
669;SDS011;317;48.758;9.302;2022-11-11T11:32:43;7.00;;;5.20;;
669;SDS011;317;48.758;9.302;2022-11-11T11:35:29;5.00;;;4.60;;
669;SDS011;317;48.758;9.302;2022-11-11T11:38:01;8.33;;;5.37;;
669;SDS011;317;48.758;9.302;2022-11-11T11:40:43;5.27;;;4.77;;
669;SDS011;317;48.758;9.302;2022-11-11T11:43:25;5.60;;;4.47;;
669;SDS011;317;48.758;9.302;2022-11-11T11:45:58;6.20;;;5.60;;
669;SDS011;317;48.758;9.302;2022-11-11T11:48:31;7.13;;;4.53;;
669;SDS011;317;48.758;9.302;2022-11-11T11:51:10;5.17;;;4.40;;
669;SDS011;317;48.758;9.302;2022-11-11T11:53:48;7.57;;;5.27;;
669;SDS011;317;48.758;9.302;2022-11-11T11:56:24;5.83;;;4.80;;
669;SDS011;317;48.758;9.302;2022-11-11T11:59:01;5.23;;;4.83;;
669;SDS011;317;48.758;9.302;2022-11-11T12:01:38;6.93;;;4.73;;
669;SDS011;317;48.758;9.302;2022-11-11T12:04:21;5.20;;;4.43;;
669;SDS011;317;48.758;9.302;2022-11-11T12:07:03;5.30;;;4.70;;
669;SDS011;317;48.758;9.302;2022-11-11T12:09:40;5.70;;;4.47;;
669;SDS011;317;48.758;9.302;2022-11-11T12:12:23;6.00;;;4.57;;
669;SDS011;317;48.758;9.302;2022-11-11T12:14:59;4.83;;;4.27;;
669;SDS011;317;48.758;9.302;2022-11-11T12:17:39;4.17;;;3.87;;
669;SDS011;317;48.758;9.302;2022-11-11T12:22:56;4.37;;;3.97;;
669;SDS011;317;48.758;9.302;2022-11-11T12:25:39;3.93;;;3.60;;
669;SDS011;317;48.758;9.302;2022-11-11T12:28:19;3.57;;;3.27;;
669;SDS011;317;48.758;9.302;2022-11-11T12:30:57;2.90;;;2.70;;
669;SDS011;317;48.758;9.302;2022-11-11T12:33:49;4.83;;;3.57;;
669;SDS011;317;48.758;9.302;2022-11-11T12:36:27;2.83;;;2.60;;
669;SDS011;317;48.758;9.302;2022-11-11T12:39:02;6.77;;;2.97;;
669;SDS011;317;48.758;9.302;2022-11-11T12:41:39;4.83;;;3.77;;
669;SDS011;317;48.758;9.302;2022-11-11T12:44:15;5.00;;;4.00;;
669;SDS011;317;48.758;9.302;2022-11-11T12:46:46;4.47;;;4.00;;
669;SDS011;317;48.758;9.302;2022-11-11T12:49:28;8.83;;;4.70;;
669;SDS011;317;48.758;9.302;2022-11-11T12:52:11;4.80;;;4.30;;
669;SDS011;317;48.758;9.302;2022-11-11T12:54:50;12.13;;;6.70;;
669;SDS011;317;48.758;9.302;2022-11-11T12:57:28;6.37;;;4.13;;
669;SDS011;317;48.758;9.302;2022-11-11T13:00:03;8.43;;;4.40;;
669;SDS011;317;48.758;9.302;2022-11-11T13:02:52;5.33;;;4.90;;
669;SDS011;317;48.758;9.302;2022-11-11T13:05:29;5.40;;;4.17;;
669;SDS011;317;48.758;9.302;2022-11-11T13:08:19;5.77;;;4.20;;
669;SDS011;317;48.758;9.302;2022-11-11T13:11:10;5.07;;;3.83;;
669;SDS011;317;48.758;9.302;2022-11-11T13:13:49;5.63;;;4.30;;
669;SDS011;317;48.758;9.302;2022-11-11T13:16:24;5.10;;;4.00;;
669;SDS011;317;48.758;9.302;2022-11-11T13:18:53;5.03;;;4.53;;
669;SDS011;317;48.758;9.302;2022-11-11T13:21:25;8.20;;;4.50;;
669;SDS011;317;48.758;9.302;2022-11-11T13:23:58;7.00;;;4.47;;
669;SDS011;317;48.758;9.302;2022-11-11T13:26:26;5.10;;;3.93;;
669;SDS011;317;48.758;9.302;2022-11-11T13:29:00;5.00;;;4.50;;
669;SDS011;317;48.758;9.302;2022-11-11T13:31:43;7.03;;;3.70;;
669;SDS011;317;48.758;9.302;2022-11-11T13:34:12;13.03;;;4.20;;
669;SDS011;317;48.758;9.302;2022-11-11T13:36:43;5.60;;;5.10;;
669;SDS011;317;48.758;9.302;2022-11-11T13:39:21;8.90;;;4.60;;
669;SDS011;317;48.758;9.302;2022-11-11T13:41:52;5.07;;;4.43;;
669;SDS011;317;48.758;9.302;2022-11-11T13:44:22;5.20;;;4.03;;
669;SDS011;317;48.758;9.302;2022-11-11T13:46:57;5.40;;;4.33;;
669;SDS011;317;48.758;9.302;2022-11-11T13:49:28;4.73;;;4.33;;
669;SDS011;317;48.758;9.302;2022-11-11T13:52:00;4.70;;;3.67;;
669;SDS011;317;48.758;9.302;2022-11-11T13:54:32;11.43;;;3.93;;
669;SDS011;317;48.758;9.302;2022-11-11T13:57:01;4.40;;;3.73;;
669;SDS011;317;48.758;9.302;2022-11-11T13:59:32;6.20;;;4.77;;
669;SDS011;317;48.758;9.302;2022-11-11T14:02:11;3.80;;;3.17;;
669;SDS011;317;48.758;9.302;2022-11-11T14:07:50;3.67;;;3.37;;
669;SDS011;317;48.758;9.302;2022-11-11T14:16:03;5.33;;;3.43;;
669;SDS011;317;48.758;9.302;2022-11-11T14:18:43;9.53;;;3.60;;
669;SDS011;317;48.758;9.302;2022-11-11T14:21:10;7.90;;;4.23;;
669;SDS011;317;48.758;9.302;2022-11-11T14:23:58;4.30;;;3.83;;
669;SDS011;317;48.758;9.302;2022-11-11T14:26:26;10.00;;;6.43;;
669;SDS011;317;48.758;9.302;2022-11-11T14:28:54;9.97;;;6.03;;
669;SDS011;317;48.758;9.302;2022-11-11T14:31:31;9.93;;;6.87;;
669;SDS011;317;48.758;9.302;2022-11-11T14:37:29;6.17;;;5.67;;
669;SDS011;317;48.758;9.302;2022-11-11T14:40:09;13.90;;;10.60;;
669;SDS011;317;48.758;9.302;2022-11-11T14:42:43;8.10;;;6.00;;
669;SDS011;317;48.758;9.302;2022-11-11T14:51:39;6.57;;;4.60;;
669;SDS011;317;48.758;9.302;2022-11-11T14:54:21;5.93;;;5.33;;
669;SDS011;317;48.758;9.302;2022-11-11T14:57:20;4.87;;;4.07;;
669;SDS011;317;48.758;9.302;2022-11-11T14:59:50;12.57;;;11.13;;
669;SDS011;317;48.758;9.302;2022-11-11T15:02:28;6.73;;;5.27;;
669;SDS011;317;48.758;9.302;2022-11-11T15:04:58;8.00;;;3.70;;
669;SDS011;317;48.758;9.302;2022-11-11T15:07:36;6.30;;;3.60;;
669;SDS011;317;48.758;9.302;2022-11-11T15:13:31;5.70;;;4.27;;
669;SDS011;317;48.758;9.302;2022-11-11T15:16:24;7.20;;;4.43;;
669;SDS011;317;48.758;9.302;2022-11-11T15:19:05;4.17;;;3.03;;
669;SDS011;317;48.758;9.302;2022-11-11T15:21:41;9.63;;;3.87;;
669;SDS011;317;48.758;9.302;2022-11-11T15:24:16;4.80;;;3.93;;
669;SDS011;317;48.758;9.302;2022-11-11T15:26:53;7.63;;;4.30;;
669;SDS011;317;48.758;9.302;2022-11-11T15:29:34;8.10;;;5.90;;
669;SDS011;317;48.758;9.302;2022-11-11T15:32:38;15.60;;;11.70;;
669;SDS011;317;48.758;9.302;2022-11-11T15:35:25;6.83;;;6.27;;
669;SDS011;317;48.758;9.302;2022-11-11T15:38:01;13.07;;;11.77;;
669;SDS011;317;48.758;9.302;2022-11-11T15:40:31;23.37;;;21.10;;
669;SDS011;317;48.758;9.302;2022-11-11T15:43:15;12.60;;;11.03;;
669;SDS011;317;48.758;9.302;2022-11-11T15:45:49;8.30;;;4.77;;
669;SDS011;317;48.758;9.302;2022-11-11T15:48:18;6.37;;;4.50;;
669;SDS011;317;48.758;9.302;2022-11-11T15:50:48;9.17;;;8.30;;
669;SDS011;317;48.758;9.302;2022-11-11T15:53:20;7.27;;;5.63;;
669;SDS011;317;48.758;9.302;2022-11-11T15:55:52;8.50;;;4.97;;
669;SDS011;317;48.758;9.302;2022-11-11T15:58:29;4.90;;;4.20;;
669;SDS011;317;48.758;9.302;2022-11-11T16:00:59;9.53;;;4.90;;
669;SDS011;317;48.758;9.302;2022-11-11T16:03:28;5.00;;;4.47;;
669;SDS011;317;48.758;9.302;2022-11-11T16:06:00;6.00;;;4.57;;
669;SDS011;317;48.758;9.302;2022-11-11T16:08:31;10.40;;;5.17;;
669;SDS011;317;48.758;9.302;2022-11-11T16:10:58;6.73;;;4.83;;
669;SDS011;317;48.758;9.302;2022-11-11T16:13:27;5.10;;;4.67;;
669;SDS011;317;48.758;9.302;2022-11-11T16:16:00;6.63;;;5.07;;
669;SDS011;317;48.758;9.302;2022-11-11T16:18:31;4.93;;;4.53;;
669;SDS011;317;48.758;9.302;2022-11-11T16:21:04;6.17;;;5.33;;